sensor_id;sensor_type;location;lat;lon;timestamp;temperature;humidity
27747;DHT22;15138;51.012;4.692;2023-07-20T06:43:10;20.10;1.00
27747;DHT22;15138;51.012;4.692;2023-07-20T06:48:11;19.90;1.00
27747;DHT22;15138;51.012;4.692;2023-07-20T06:50:39;19.90;1.00
27747;DHT22;15138;51.012;4.692;2023-07-20T06:53:08;19.90;1.00
27747;DHT22;15138;51.012;4.692;2023-07-20T06:55:36;19.90;1.00
27747;DHT22;15138;51.012;4.692;2023-07-20T08:27:52;23.00;99.90
27747;DHT22;15138;51.012;4.692;2023-07-20T08:30:22;23.10;99.90
27747;DHT22;15138;51.012;4.692;2023-07-20T08:32:51;23.10;99.90
27747;DHT22;15138;51.012;4.692;2023-07-20T08:35:19;23.10;99.90
27747;DHT22;15138;51.012;4.692;2023-07-20T08:37:49;22.90;99.90
27747;DHT22;15138;51.012;4.692;2023-07-20T08:40:17;23.40;99.90
27747;DHT22;15138;51.012;4.692;2023-07-20T08:42:45;24.10;99.90
27747;DHT22;15138;51.012;4.692;2023-07-20T08:45:16;24.50;99.90
27747;DHT22;15138;51.012;4.692;2023-07-20T08:47:45;24.50;99.90
27747;DHT22;15138;51.012;4.692;2023-07-20T08:50:15;24.90;99.90
27747;DHT22;15138;51.012;4.692;2023-07-20T08:52:44;24.70;99.90
27747;DHT22;15138;51.012;4.692;2023-07-20T08:57:45;23.60;18.30
27747;DHT22;15138;51.012;4.692;2023-07-20T09:00:17;23.50;62.70
27747;DHT22;15138;51.012;4.692;2023-07-20T09:02:49;23.60;71.40
27747;DHT22;15138;51.012;4.692;2023-07-20T09:05:18;23.90;53.70
27747;DHT22;15138;51.012;4.692;2023-07-20T09:07:47;23.70;96.60
27747;DHT22;15138;51.012;4.692;2023-07-20T09:12:44;24.90;99.90
27747;DHT22;15138;51.012;4.692;2023-07-20T09:15:12;25.30;1.00
27747;DHT22;15138;51.012;4.692;2023-07-20T09:17:45;25.60;1.00
27747;DHT22;15138;51.012;4.692;2023-07-20T09:20:15;25.20;1.00
27747;DHT22;15138;51.012;4.692;2023-07-20T09:22:47;25.80;1.00
27747;DHT22;15138;51.012;4.692;2023-07-20T09:25:17;26.10;1.00
27747;DHT22;15138;51.012;4.692;2023-07-20T09:27:49;25.70;1.00
27747;DHT22;15138;51.012;4.692;2023-07-20T09:30:19;25.60;1.00
27747;DHT22;15138;51.012;4.692;2023-07-20T09:32:49;25.10;99.90
27747;DHT22;15138;51.012;4.692;2023-07-20T09:35:21;25.30;99.90
27747;DHT22;15138;51.012;4.692;2023-07-20T09:37:55;25.40;99.90
27747;DHT22;15138;51.012;4.692;2023-07-20T09:40:28;26.30;99.90
27747;DHT22;15138;51.012;4.692;2023-07-20T09:43:00;27.00;99.90
27747;DHT22;15138;51.012;4.692;2023-07-20T09:45:34;27.20;99.90
27747;DHT22;15138;51.012;4.692;2023-07-20T09:48:08;26.70;99.90
27747;DHT22;15138;51.012;4.692;2023-07-20T09:50:40;26.40;99.90
27747;DHT22;15138;51.012;4.692;2023-07-20T09:53:11;27.20;99.90
27747;DHT22;15138;51.012;4.692;2023-07-20T09:55:41;27.30;99.90
27747;DHT22;15138;51.012;4.692;2023-07-20T09:58:10;27.70;99.90
27747;DHT22;15138;51.012;4.692;2023-07-20T10:00:39;27.50;99.90
27747;DHT22;15138;51.012;4.692;2023-07-20T10:03:18;27.30;99.90
27747;DHT22;15138;51.012;4.692;2023-07-20T10:05:51;27.20;1.00
27747;DHT22;15138;51.012;4.692;2023-07-20T10:08:20;27.10;99.90
27747;DHT22;15138;51.012;4.692;2023-07-20T10:10:54;27.20;99.90
27747;DHT22;15138;51.012;4.692;2023-07-20T10:13:27;26.80;99.90
27747;DHT22;15138;51.012;4.692;2023-07-20T10:16:00;27.20;99.90
27747;DHT22;15138;51.012;4.692;2023-07-20T10:18:38;27.90;99.90
27747;DHT22;15138;51.012;4.692;2023-07-20T10:21:10;28.60;99.90
27747;DHT22;15138;51.012;4.692;2023-07-20T10:23:41;28.00;99.90
27747;DHT22;15138;51.012;4.692;2023-07-20T11:49:35;30.00;99.90
27747;DHT22;15138;51.012;4.692;2023-07-20T11:52:05;30.50;99.90
27747;DHT22;15138;51.012;4.692;2023-07-20T11:54:35;30.00;93.90
27747;DHT22;15138;51.012;4.692;2023-07-20T11:57:04;29.70;85.70
27747;DHT22;15138;51.012;4.692;2023-07-20T11:59:33;29.60;90.40
27747;DHT22;15138;51.012;4.692;2023-07-20T12:02:02;29.40;86.70
27747;DHT22;15138;51.012;4.692;2023-07-20T12:04:32;29.00;69.00
27747;DHT22;15138;51.012;4.692;2023-07-20T12:07:01;28.90;76.50
27747;DHT22;15138;51.012;4.692;2023-07-20T12:09:29;28.20;71.80
27747;DHT22;15138;51.012;4.692;2023-07-20T12:12:18;28.60;73.90
27747;DHT22;15138;51.012;4.692;2023-07-20T12:14:47;28.40;52.90
27747;DHT22;15138;51.012;4.692;2023-07-20T12:17:16;28.50;63.30
27747;DHT22;15138;51.012;4.692;2023-07-20T12:19:46;28.40;58.40
27747;DHT22;15138;51.012;4.692;2023-07-20T12:22:14;28.40;66.30
27747;DHT22;15138;51.012;4.692;2023-07-20T12:24:42;28.30;69.30
27747;DHT22;15138;51.012;4.692;2023-07-20T12:27:13;27.90;50.50
27747;DHT22;15138;51.012;4.692;2023-07-20T12:29:45;27.80;71.30
27747;DHT22;15138;51.012;4.692;2023-07-20T12:32:13;27.90;96.00
27747;DHT22;15138;51.012;4.692;2023-07-20T12:34:41;28.10;99.90
27747;DHT22;15138;51.012;4.692;2023-07-20T12:37:11;28.10;99.90
27747;DHT22;15138;51.012;4.692;2023-07-20T12:39:39;28.20;75.20
27747;DHT22;15138;51.012;4.692;2023-07-20T12:42:08;28.10;94.10
27747;DHT22;15138;51.012;4.692;2023-07-20T12:44:36;28.20;99.90
27747;DHT22;15138;51.012;4.692;2023-07-20T12:47:05;28.30;99.90
27747;DHT22;15138;51.012;4.692;2023-07-20T12:49:33;28.20;95.60
27747;DHT22;15138;51.012;4.692;2023-07-20T12:52:01;28.00;83.00
27747;DHT22;15138;51.012;4.692;2023-07-20T12:54:31;27.70;56.50
27747;DHT22;15138;51.012;4.692;2023-07-20T12:56:59;27.60;99.90
27747;DHT22;15138;51.012;4.692;2023-07-20T12:59:30;27.60;99.90
27747;DHT22;15138;51.012;4.692;2023-07-20T13:02:00;27.60;99.90
27747;DHT22;15138;51.012;4.692;2023-07-20T13:04:28;27.50;99.90
27747;DHT22;15138;51.012;4.692;2023-07-20T13:06:56;27.50;99.90
27747;DHT22;15138;51.012;4.692;2023-07-20T13:09:25;27.50;99.90
27747;DHT22;15138;51.012;4.692;2023-07-20T13:11:55;27.50;99.90
27747;DHT22;15138;51.012;4.692;2023-07-20T13:14:24;27.50;99.90
27747;DHT22;15138;51.012;4.692;2023-07-20T13:16:52;27.30;99.90
27747;DHT22;15138;51.012;4.692;2023-07-20T13:19:20;27.30;99.90
27747;DHT22;15138;51.012;4.692;2023-07-20T13:21:48;27.10;1.00
27747;DHT22;15138;51.012;4.692;2023-07-20T13:31:44;27.10;99.90
27747;DHT22;15138;51.012;4.692;2023-07-20T13:34:15;27.10;99.90
27747;DHT22;15138;51.012;4.692;2023-07-20T13:36:45;27.10;99.90
27747;DHT22;15138;51.012;4.692;2023-07-20T13:39:15;26.90;99.90
27747;DHT22;15138;51.012;4.692;2023-07-20T13:41:45;26.90;99.90
27747;DHT22;15138;51.012;4.692;2023-07-20T13:44:15;26.70;99.90
27747;DHT22;15138;51.012;4.692;2023-07-20T13:46:48;26.70;99.90
27747;DHT22;15138;51.012;4.692;2023-07-20T13:49:17;26.50;99.90
27747;DHT22;15138;51.012;4.692;2023-07-20T13:51:49;26.40;1.00
27747;DHT22;15138;51.012;4.692;2023-07-20T13:54:20;26.40;99.90
27747;DHT22;15138;51.012;4.692;2023-07-20T13:56:51;26.20;99.90
27747;DHT22;15138;51.012;4.692;2023-07-20T13:59:22;26.00;99.90
27747;DHT22;15138;51.012;4.692;2023-07-20T14:01:52;25.70;84.80
27747;DHT22;15138;51.012;4.692;2023-07-20T14:04:40;25.60;72.80
27747;DHT22;15138;51.012;4.692;2023-07-20T14:07:08;25.70;75.50
27747;DHT22;15138;51.012;4.692;2023-07-20T14:09:38;25.60;72.20
27747;DHT22;15138;51.012;4.692;2023-07-20T14:12:26;25.50;69.60
27747;DHT22;15138;51.012;4.692;2023-07-20T14:14:57;25.40;71.30
27747;DHT22;15138;51.012;4.692;2023-07-20T14:17:25;25.30;69.50
27747;DHT22;15138;51.012;4.692;2023-07-20T14:19:53;25.20;67.10
27747;DHT22;15138;51.012;4.692;2023-07-20T14:22:21;25.20;68.20
27747;DHT22;15138;51.012;4.692;2023-07-20T14:24:50;25.10;65.70
27747;DHT22;15138;51.012;4.692;2023-07-20T14:27:18;25.00;69.70
27747;DHT22;15138;51.012;4.692;2023-07-20T14:29:46;24.90;68.70
27747;DHT22;15138;51.012;4.692;2023-07-20T14:32:16;24.90;72.30
27747;DHT22;15138;51.012;4.692;2023-07-20T14:34:44;24.80;69.60
27747;DHT22;15138;51.012;4.692;2023-07-20T14:37:13;24.90;69.60
27747;DHT22;15138;51.012;4.692;2023-07-20T14:39:41;24.90;71.60
27747;DHT22;15138;51.012;4.692;2023-07-20T14:42:09;24.90;71.30
27747;DHT22;15138;51.012;4.692;2023-07-20T14:44:37;24.90;75.30
27747;DHT22;15138;51.012;4.692;2023-07-20T14:47:06;24.90;76.00
27747;DHT22;15138;51.012;4.692;2023-07-20T14:49:42;25.00;78.20
27747;DHT22;15138;51.012;4.692;2023-07-20T14:52:11;25.00;80.00
27747;DHT22;15138;51.012;4.692;2023-07-20T14:54:42;25.00;79.50
27747;DHT22;15138;51.012;4.692;2023-07-20T14:57:10;25.00;82.80
27747;DHT22;15138;51.012;4.692;2023-07-20T14:59:42;25.10;83.50
27747;DHT22;15138;51.012;4.692;2023-07-20T15:02:11;25.30;80.50
27747;DHT22;15138;51.012;4.692;2023-07-20T15:04:47;25.50;88.90
27747;DHT22;15138;51.012;4.692;2023-07-20T15:07:16;25.40;89.90
27747;DHT22;15138;51.012;4.692;2023-07-20T15:09:45;25.30;89.60
27747;DHT22;15138;51.012;4.692;2023-07-20T15:12:13;25.30;87.30
27747;DHT22;15138;51.012;4.692;2023-07-20T15:14:42;25.40;90.70
27747;DHT22;15138;51.012;4.692;2023-07-20T15:17:11;25.50;91.00
27747;DHT22;15138;51.012;4.692;2023-07-20T15:19:39;25.50;91.40
27747;DHT22;15138;51.012;4.692;2023-07-20T15:22:09;25.50;91.20
27747;DHT22;15138;51.012;4.692;2023-07-20T15:24:38;25.30;91.80
27747;DHT22;15138;51.012;4.692;2023-07-20T15:27:06;25.20;93.10
27747;DHT22;15138;51.012;4.692;2023-07-20T15:29:34;25.10;92.90
27747;DHT22;15138;51.012;4.692;2023-07-20T15:32:04;25.00;91.50
27747;DHT22;15138;51.012;4.692;2023-07-20T15:34:33;25.00;91.40
27747;DHT22;15138;51.012;4.692;2023-07-20T15:37:01;24.90;92.60
27747;DHT22;15138;51.012;4.692;2023-07-20T15:39:31;25.00;92.50
27747;DHT22;15138;51.012;4.692;2023-07-20T15:41:59;25.10;94.40
27747;DHT22;15138;51.012;4.692;2023-07-20T15:44:29;25.20;94.50
27747;DHT22;15138;51.012;4.692;2023-07-20T15:46:57;25.20;93.30
27747;DHT22;15138;51.012;4.692;2023-07-20T15:49:26;25.20;94.00
27747;DHT22;15138;51.012;4.692;2023-07-20T15:51:59;25.10;94.50
27747;DHT22;15138;51.012;4.692;2023-07-20T15:54:27;25.10;95.80
27747;DHT22;15138;51.012;4.692;2023-07-20T15:56:57;25.00;95.60
27747;DHT22;15138;51.012;4.692;2023-07-20T15:59:25;24.90;96.00
27747;DHT22;15138;51.012;4.692;2023-07-20T16:01:53;24.80;95.70
27747;DHT22;15138;51.012;4.692;2023-07-20T16:04:21;24.70;99.90
27747;DHT22;15138;51.012;4.692;2023-07-20T16:06:50;24.80;99.90
27747;DHT22;15138;51.012;4.692;2023-07-20T16:09:18;24.80;99.90
27747;DHT22;15138;51.012;4.692;2023-07-20T16:11:47;24.70;99.90
27747;DHT22;15138;51.012;4.692;2023-07-20T16:14:17;24.60;99.90
27747;DHT22;15138;51.012;4.692;2023-07-20T16:16:45;24.50;99.90
27747;DHT22;15138;51.012;4.692;2023-07-20T16:19:13;24.50;99.90
27747;DHT22;15138;51.012;4.692;2023-07-20T16:21:41;24.30;99.90
27747;DHT22;15138;51.012;4.692;2023-07-20T16:24:10;24.20;99.90
27747;DHT22;15138;51.012;4.692;2023-07-20T16:26:38;24.00;99.90
27747;DHT22;15138;51.012;4.692;2023-07-20T16:29:10;23.70;99.90
27747;DHT22;15138;51.012;4.692;2023-07-20T16:31:43;23.30;99.90
27747;DHT22;15138;51.012;4.692;2023-07-20T16:34:14;23.20;99.90
27747;DHT22;15138;51.012;4.692;2023-07-20T16:36:42;22.80;99.90
27747;DHT22;15138;51.012;4.692;2023-07-20T16:39:13;22.50;99.90
27747;DHT22;15138;51.012;4.692;2023-07-20T16:41:44;22.40;99.90
27747;DHT22;15138;51.012;4.692;2023-07-20T16:44:16;22.50;99.90
27747;DHT22;15138;51.012;4.692;2023-07-20T16:46:45;22.50;99.90
27747;DHT22;15138;51.012;4.692;2023-07-20T16:49:16;22.30;99.90
27747;DHT22;15138;51.012;4.692;2023-07-20T16:51:44;22.30;99.90
27747;DHT22;15138;51.012;4.692;2023-07-20T16:54:12;22.50;99.90
27747;DHT22;15138;51.012;4.692;2023-07-20T16:56:44;22.30;99.90
27747;DHT22;15138;51.012;4.692;2023-07-20T16:59:12;22.30;99.90
27747;DHT22;15138;51.012;4.692;2023-07-20T17:01:40;22.30;99.90
27747;DHT22;15138;51.012;4.692;2023-07-20T17:04:10;22.20;99.90
27747;DHT22;15138;51.012;4.692;2023-07-20T17:06:41;22.20;99.90
27747;DHT22;15138;51.012;4.692;2023-07-20T17:09:13;22.20;1.00
27747;DHT22;15138;51.012;4.692;2023-07-20T17:11:41;22.00;99.90
27747;DHT22;15138;51.012;4.692;2023-07-20T17:14:10;22.20;99.90
27747;DHT22;15138;51.012;4.692;2023-07-20T17:16:39;22.20;99.90
27747;DHT22;15138;51.012;4.692;2023-07-20T17:19:07;22.20;99.90
27747;DHT22;15138;51.012;4.692;2023-07-20T17:21:38;22.20;99.90
27747;DHT22;15138;51.012;4.692;2023-07-20T17:24:07;22.10;1.00
27747;DHT22;15138;51.012;4.692;2023-07-20T17:26:36;22.10;99.90
27747;DHT22;15138;51.012;4.692;2023-07-20T17:29:07;21.90;1.00
27747;DHT22;15138;51.012;4.692;2023-07-20T17:31:36;22.20;1.00
27747;DHT22;15138;51.012;4.692;2023-07-20T17:34:04;22.10;1.00
27747;DHT22;15138;51.012;4.692;2023-07-20T17:36:33;22.10;1.00
27747;DHT22;15138;51.012;4.692;2023-07-20T17:39:05;22.20;88.00
27747;DHT22;15138;51.012;4.692;2023-07-20T17:41:33;22.00;1.00
27747;DHT22;15138;51.012;4.692;2023-07-20T17:44:01;21.90;1.00
27747;DHT22;15138;51.012;4.692;2023-07-20T17:46:30;21.60;1.00
27747;DHT22;15138;51.012;4.692;2023-07-20T17:49:01;21.70;1.00
27747;DHT22;15138;51.012;4.692;2023-07-20T17:51:30;21.60;1.00
27747;DHT22;15138;51.012;4.692;2023-07-20T17:53:59;21.50;99.90
27747;DHT22;15138;51.012;4.692;2023-07-20T17:56:28;20.90;1.00
27747;DHT22;15138;51.012;4.692;2023-07-20T17:58:56;20.40;99.90
27747;DHT22;15138;51.012;4.692;2023-07-20T18:01:25;20.30;1.00
27747;DHT22;15138;51.012;4.692;2023-07-20T18:03:54;20.60;1.00
27747;DHT22;15138;51.012;4.692;2023-07-20T18:06:22;21.00;1.00
27747;DHT22;15138;51.012;4.692;2023-07-20T18:08:50;21.00;1.00
27747;DHT22;15138;51.012;4.692;2023-07-20T18:11:19;21.00;1.00
27747;DHT22;15138;51.012;4.692;2023-07-20T18:13:48;20.90;1.00
27747;DHT22;15138;51.012;4.692;2023-07-20T18:16:16;21.00;1.00
27747;DHT22;15138;51.012;4.692;2023-07-20T18:18:45;21.20;99.90
27747;DHT22;15138;51.012;4.692;2023-07-20T18:21:13;21.30;99.90
27747;DHT22;15138;51.012;4.692;2023-07-20T18:23:41;21.30;99.90
27747;DHT22;15138;51.012;4.692;2023-07-20T18:26:09;21.30;99.90
27747;DHT22;15138;51.012;4.692;2023-07-20T18:28:38;21.40;99.90
27747;DHT22;15138;51.012;4.692;2023-07-20T18:31:07;21.30;99.90
27747;DHT22;15138;51.012;4.692;2023-07-20T18:33:36;21.20;99.90
27747;DHT22;15138;51.012;4.692;2023-07-20T18:36:04;21.30;99.90
27747;DHT22;15138;51.012;4.692;2023-07-20T18:38:34;21.30;99.90
27747;DHT22;15138;51.012;4.692;2023-07-20T18:41:02;21.30;99.90
27747;DHT22;15138;51.012;4.692;2023-07-20T18:43:30;21.30;99.90
27747;DHT22;15138;51.012;4.692;2023-07-20T18:45:58;21.30;99.90
27747;DHT22;15138;51.012;4.692;2023-07-20T18:48:28;21.30;99.90
27747;DHT22;15138;51.012;4.692;2023-07-20T18:50:56;21.30;99.90
27747;DHT22;15138;51.012;4.692;2023-07-20T18:53:25;21.20;99.90
27747;DHT22;15138;51.012;4.692;2023-07-20T18:55:53;21.20;99.90
27747;DHT22;15138;51.012;4.692;2023-07-20T18:58:21;21.20;99.90
27747;DHT22;15138;51.012;4.692;2023-07-20T19:00:50;21.20;99.90
27747;DHT22;15138;51.012;4.692;2023-07-20T19:03:18;21.20;99.90
27747;DHT22;15138;51.012;4.692;2023-07-20T19:05:51;21.10;99.90
27747;DHT22;15138;51.012;4.692;2023-07-20T19:08:19;20.90;99.90
27747;DHT22;15138;51.012;4.692;2023-07-20T19:10:47;20.90;99.90
27747;DHT22;15138;51.012;4.692;2023-07-20T19:13:18;20.90;99.90
27747;DHT22;15138;51.012;4.692;2023-07-20T19:15:50;20.90;99.90
27747;DHT22;15138;51.012;4.692;2023-07-20T19:18:22;20.90;99.90
27747;DHT22;15138;51.012;4.692;2023-07-20T19:20:54;20.70;99.90
27747;DHT22;15138;51.012;4.692;2023-07-20T19:23:22;20.60;99.90
27747;DHT22;15138;51.012;4.692;2023-07-20T19:25:50;20.50;99.90
27747;DHT22;15138;51.012;4.692;2023-07-20T19:28:20;20.50;99.90
27747;DHT22;15138;51.012;4.692;2023-07-20T19:30:48;20.40;99.90
27747;DHT22;15138;51.012;4.692;2023-07-20T19:33:17;20.40;99.90
27747;DHT22;15138;51.012;4.692;2023-07-20T19:35:45;20.40;99.90
27747;DHT22;15138;51.012;4.692;2023-07-20T19:38:21;20.30;99.90
27747;DHT22;15138;51.012;4.692;2023-07-20T19:40:51;20.30;99.90
27747;DHT22;15138;51.012;4.692;2023-07-20T19:43:20;20.20;99.90
27747;DHT22;15138;51.012;4.692;2023-07-20T19:45:49;20.10;99.90
27747;DHT22;15138;51.012;4.692;2023-07-20T19:48:18;20.10;99.90
27747;DHT22;15138;51.012;4.692;2023-07-20T19:50:47;19.90;99.90
27747;DHT22;15138;51.012;4.692;2023-07-20T19:53:18;19.70;99.90
27747;DHT22;15138;51.012;4.692;2023-07-20T19:55:49;19.60;99.90
27747;DHT22;15138;51.012;4.692;2023-07-20T19:58:18;19.70;99.90
27747;DHT22;15138;51.012;4.692;2023-07-20T20:00:46;19.70;99.90
27747;DHT22;15138;51.012;4.692;2023-07-20T20:03:19;19.60;99.90
27747;DHT22;15138;51.012;4.692;2023-07-20T20:05:51;19.60;99.90
27747;DHT22;15138;51.012;4.692;2023-07-20T20:08:21;19.50;99.90
27747;DHT22;15138;51.012;4.692;2023-07-20T20:10:52;19.40;99.90
27747;DHT22;15138;51.012;4.692;2023-07-20T20:13:40;19.40;99.90
27747;DHT22;15138;51.012;4.692;2023-07-20T20:16:08;19.40;99.90
27747;DHT22;15138;51.012;4.692;2023-07-20T20:18:37;19.20;99.90
27747;DHT22;15138;51.012;4.692;2023-07-20T20:21:10;19.00;99.90
27747;DHT22;15138;51.012;4.692;2023-07-20T20:23:40;18.90;99.90
27747;DHT22;15138;51.012;4.692;2023-07-20T20:26:09;18.90;99.90
27747;DHT22;15138;51.012;4.692;2023-07-20T20:28:37;18.80;99.90
27747;DHT22;15138;51.012;4.692;2023-07-20T20:31:06;18.90;99.90
27747;DHT22;15138;51.012;4.692;2023-07-20T20:33:34;18.80;99.90
27747;DHT22;15138;51.012;4.692;2023-07-20T20:36:04;18.80;99.90
27747;DHT22;15138;51.012;4.692;2023-07-20T20:38:33;18.80;1.00
27747;DHT22;15138;51.012;4.692;2023-07-20T20:41:05;18.70;1.00
27747;DHT22;15138;51.012;4.692;2023-07-20T20:43:34;18.60;99.90
27747;DHT22;15138;51.012;4.692;2023-07-20T20:46:02;18.50;1.00
27747;DHT22;15138;51.012;4.692;2023-07-20T20:48:31;18.40;99.90
27747;DHT22;15138;51.012;4.692;2023-07-20T20:51:02;18.40;99.90
27747;DHT22;15138;51.012;4.692;2023-07-20T20:53:30;18.40;99.90
27747;DHT22;15138;51.012;4.692;2023-07-20T20:55:59;18.30;99.90
27747;DHT22;15138;51.012;4.692;2023-07-20T20:58:28;18.20;99.90
27747;DHT22;15138;51.012;4.692;2023-07-20T21:00:58;18.20;99.90
27747;DHT22;15138;51.012;4.692;2023-07-20T21:03:27;18.10;99.90
27747;DHT22;15138;51.012;4.692;2023-07-20T21:05:56;18.00;1.00
27747;DHT22;15138;51.012;4.692;2023-07-20T21:08:24;17.90;1.00
27747;DHT22;15138;51.012;4.692;2023-07-20T21:10:59;17.90;99.90
27747;DHT22;15138;51.012;4.692;2023-07-20T21:13:28;17.90;99.90
27747;DHT22;15138;51.012;4.692;2023-07-20T21:15:56;18.00;99.90
27747;DHT22;15138;51.012;4.692;2023-07-20T21:18:24;17.90;99.90
27747;DHT22;15138;51.012;4.692;2023-07-20T21:20:53;17.90;99.90
27747;DHT22;15138;51.012;4.692;2023-07-20T21:23:21;17.80;99.90
27747;DHT22;15138;51.012;4.692;2023-07-20T21:25:50;17.70;99.90
27747;DHT22;15138;51.012;4.692;2023-07-20T21:28:18;17.70;99.90
27747;DHT22;15138;51.012;4.692;2023-07-20T21:31:01;17.70;99.90
27747;DHT22;15138;51.012;4.692;2023-07-20T21:33:31;17.60;99.90
27747;DHT22;15138;51.012;4.692;2023-07-20T21:35:59;17.70;99.90
27747;DHT22;15138;51.012;4.692;2023-07-20T21:38:27;17.70;99.90
27747;DHT22;15138;51.012;4.692;2023-07-20T21:40:57;17.50;99.90
27747;DHT22;15138;51.012;4.692;2023-07-20T21:43:25;17.40;1.00
27747;DHT22;15138;51.012;4.692;2023-07-20T21:45:53;17.40;99.90
27747;DHT22;15138;51.012;4.692;2023-07-20T21:48:22;17.40;99.90
27747;DHT22;15138;51.012;4.692;2023-07-20T21:50:52;17.30;1.00
27747;DHT22;15138;51.012;4.692;2023-07-20T21:53:20;17.10;1.00
27747;DHT22;15138;51.012;4.692;2023-07-20T21:55:48;17.00;1.00
27747;DHT22;15138;51.012;4.692;2023-07-20T21:58:17;17.00;1.00
27747;DHT22;15138;51.012;4.692;2023-07-20T22:00:46;17.10;1.00
27747;DHT22;15138;51.012;4.692;2023-07-20T22:03:18;17.20;99.90
27747;DHT22;15138;51.012;4.692;2023-07-20T22:05:49;17.20;99.90
27747;DHT22;15138;51.012;4.692;2023-07-20T22:08:19;17.20;99.90
27747;DHT22;15138;51.012;4.692;2023-07-20T22:10:47;17.20;99.90
27747;DHT22;15138;51.012;4.692;2023-07-20T22:13:19;17.10;1.00
27747;DHT22;15138;51.012;4.692;2023-07-20T22:15:47;17.00;99.90
27747;DHT22;15138;51.012;4.692;2023-07-20T22:18:17;17.10;99.90
27747;DHT22;15138;51.012;4.692;2023-07-20T22:21:03;17.10;99.90
27747;DHT22;15138;51.012;4.692;2023-07-20T22:23:33;17.10;99.90
27747;DHT22;15138;51.012;4.692;2023-07-20T22:26:01;17.10;99.90
27747;DHT22;15138;51.012;4.692;2023-07-20T22:28:30;17.10;99.90
27747;DHT22;15138;51.012;4.692;2023-07-20T22:30:59;17.00;99.90
27747;DHT22;15138;51.012;4.692;2023-07-20T22:33:27;16.90;1.00
27747;DHT22;15138;51.012;4.692;2023-07-20T22:35:55;16.70;1.00
27747;DHT22;15138;51.012;4.692;2023-07-20T22:38:25;16.80;1.00
27747;DHT22;15138;51.012;4.692;2023-07-20T22:40:54;16.80;99.90
27747;DHT22;15138;51.012;4.692;2023-07-20T22:43:22;16.90;99.90
27747;DHT22;15138;51.012;4.692;2023-07-20T22:45:53;16.90;99.90
27747;DHT22;15138;51.012;4.692;2023-07-20T22:48:22;16.80;99.90
27747;DHT22;15138;51.012;4.692;2023-07-20T22:50:53;16.70;1.00
27747;DHT22;15138;51.012;4.692;2023-07-20T22:53:25;16.50;1.00
27747;DHT22;15138;51.012;4.692;2023-07-20T23:00:53;16.40;1.00
27747;DHT22;15138;51.012;4.692;2023-07-20T23:03:21;16.50;1.00
27747;DHT22;15138;51.012;4.692;2023-07-20T23:05:50;16.50;99.90
27747;DHT22;15138;51.012;4.692;2023-07-20T23:08:18;16.50;1.00
27747;DHT22;15138;51.012;4.692;2023-07-20T23:10:47;16.50;99.90
27747;DHT22;15138;51.012;4.692;2023-07-20T23:13:15;16.60;99.90
27747;DHT22;15138;51.012;4.692;2023-07-20T23:15:43;16.60;99.90
27747;DHT22;15138;51.012;4.692;2023-07-20T23:18:11;16.60;99.90
27747;DHT22;15138;51.012;4.692;2023-07-20T23:20:39;16.60;99.90
27747;DHT22;15138;51.012;4.692;2023-07-20T23:23:07;16.60;99.90
27747;DHT22;15138;51.012;4.692;2023-07-20T23:25:36;16.60;99.90
27747;DHT22;15138;51.012;4.692;2023-07-20T23:28:05;16.50;99.90
27747;DHT22;15138;51.012;4.692;2023-07-20T23:30:33;16.50;99.90
27747;DHT22;15138;51.012;4.692;2023-07-20T23:33:01;16.50;1.00
27747;DHT22;15138;51.012;4.692;2023-07-20T23:35:30;16.30;1.00
27747;DHT22;15138;51.012;4.692;2023-07-20T23:37:58;16.30;1.00
27747;DHT22;15138;51.012;4.692;2023-07-20T23:40:27;16.30;1.00
27747;DHT22;15138;51.012;4.692;2023-07-20T23:42:56;16.30;1.00
27747;DHT22;15138;51.012;4.692;2023-07-20T23:45:25;16.30;1.00
27747;DHT22;15138;51.012;4.692;2023-07-20T23:47:53;16.30;1.00
27747;DHT22;15138;51.012;4.692;2023-07-20T23:50:22;16.30;1.00
27747;DHT22;15138;51.012;4.692;2023-07-20T23:52:51;16.40;99.90
27747;DHT22;15138;51.012;4.692;2023-07-20T23:55:19;16.40;99.90
27747;DHT22;15138;51.012;4.692;2023-07-20T23:57:47;16.30;1.00
